DAL3987 KDTW-KBUF
Flight info
| Callsign | DAL3987 |
|---|---|
| Flight time | 0h 43m |
| Altitude | 25000 |
| Route | KDTW/21R N0412F250 HHOWE4 BROKK DCT DKK DCT KBUF/23 |
| Aircraft | A321/M-VGDW/C |
Departure
| Time | 2026-05-05 00:06 |
|---|---|
| Airport | Detroit Metropolitan Wayne County Airport (KDTW) |
Arrival
| Time | 2026-05-05 00:50 |
|---|---|
| Airport | Buffalo Niagara International Airport (KBUF) |
| Time | Latitude | Longitude | Altitude | Speed | Heading |
|---|---|---|---|---|---|
| 2026-05-04 23:40 | 42.21037 | -83.36042 | 647 ft | 0 kts | 298° |
| 2026-05-04 23:49 | 42.21036 | -83.36040 | 646 ft | 2 kts | 298° |
| 2026-05-04 23:49 | 42.21024 | -83.36010 | 646 ft | 3 kts | 298° |
| 2026-05-04 23:50 | 42.21013 | -83.35986 | 649 ft | 4 kts | 323° |
| 2026-05-04 23:50 | 42.20994 | -83.35981 | 648 ft | 3 kts | 28° |
| 2026-05-04 23:50 | 42.20974 | -83.35996 | 650 ft | 1 kts | 29° |
| 2026-05-04 23:56 | 42.20980 | -83.35991 | 647 ft | 6 kts | 29° |
| 2026-05-04 23:56 | 42.21034 | -83.35951 | 618 ft | 9 kts | 29° |
| 2026-05-04 23:57 | 42.21088 | -83.35910 | 647 ft | 8 kts | 29° |
| 2026-05-04 23:57 | 42.21133 | -83.35877 | 646 ft | 7 kts | 29° |
| 2026-05-04 23:57 | 42.21143 | -83.35870 | 647 ft | 6 kts | 29° |
| 2026-05-04 23:57 | 42.21178 | -83.35844 | 646 ft | 5 kts | 27° |
| 2026-05-04 23:58 | 42.21206 | -83.35824 | 646 ft | 4 kts | 28° |
| 2026-05-04 23:58 | 42.21226 | -83.35809 | 646 ft | 3 kts | 28° |
| 2026-05-04 23:58 | 42.21270 | -83.35777 | 646 ft | 10 kts | 29° |
| 2026-05-04 23:58 | 42.21331 | -83.35731 | 647 ft | 11 kts | 28° |
| 2026-05-04 23:59 | 42.21400 | -83.35682 | 646 ft | 11 kts | 28° |
| 2026-05-04 23:59 | 42.21463 | -83.35636 | 646 ft | 10 kts | 28° |
| 2026-05-04 23:59 | 42.21530 | -83.35572 | 646 ft | 12 kts | 55° |
| 2026-05-04 23:59 | 42.21546 | -83.35466 | 646 ft | 11 kts | 88° |
| 2026-05-05 00:00 | 42.21548 | -83.35364 | 646 ft | 11 kts | 89° |
| 2026-05-05 00:00 | 42.21549 | -83.35290 | 646 ft | 12 kts | 89° |
| 2026-05-05 00:00 | 42.21551 | -83.35156 | 646 ft | 11 kts | 89° |
| 2026-05-05 00:00 | 42.21565 | -83.35067 | 648 ft | 9 kts | 40° |
| 2026-05-05 00:01 | 42.21602 | -83.35015 | 647 ft | 7 kts | 15° |
| 2026-05-05 00:01 | 42.21642 | -83.34969 | 646 ft | 12 kts | 54° |
| 2026-05-05 00:01 | 42.21734 | -83.34845 | 647 ft | 22 kts | 42° |
| 2026-05-05 00:01 | 42.21822 | -83.34742 | 646 ft | 14 kts | 47° |
| 2026-05-05 00:02 | 42.21835 | -83.34625 | 647 ft | 12 kts | 89° |
| 2026-05-05 00:02 | 42.21840 | -83.34523 | 647 ft | 9 kts | 68° |
| 2026-05-05 00:02 | 42.21905 | -83.34462 | 646 ft | 20 kts | 28° |
| 2026-05-05 00:02 | 42.22039 | -83.34365 | 647 ft | 22 kts | 29° |
| 2026-05-05 00:03 | 42.22170 | -83.34268 | 646 ft | 21 kts | 28° |
| 2026-05-05 00:03 | 42.22295 | -83.34177 | 646 ft | 20 kts | 28° |
| 2026-05-05 00:03 | 42.22412 | -83.34089 | 647 ft | 19 kts | 30° |
| 2026-05-05 00:03 | 42.22523 | -83.34008 | 648 ft | 18 kts | 28° |
| 2026-05-05 00:04 | 42.22631 | -83.33930 | 646 ft | 18 kts | 28° |
| 2026-05-05 00:04 | 42.22711 | -83.33870 | 646 ft | 9 kts | 29° |
| 2026-05-05 00:04 | 42.22769 | -83.33827 | 647 ft | 10 kts | 28° |
| 2026-05-05 00:04 | 42.22834 | -83.33780 | 646 ft | 10 kts | 28° |
| 2026-05-05 00:05 | 42.22844 | -83.33690 | 646 ft | 13 kts | 117° |
| 2026-05-05 00:05 | 42.22802 | -83.33631 | 645 ft | 7 kts | 182° |
| 2026-05-05 00:05 | 42.22737 | -83.33682 | 646 ft | 21 kts | 210° |
| 2026-05-05 00:05 | 42.22405 | -83.33930 | 647 ft | 88 kts | 209° |
| 2026-05-05 00:06 | 42.21704 | -83.34447 | 648 ft | 139 kts | 209° |
| 2026-05-05 00:06 | 42.20785 | -83.35113 | 1046 ft | 146 kts | 212° |
| 2026-05-05 00:06 | 42.19937 | -83.35727 | 1821 ft | 133 kts | 213° |
| 2026-05-05 00:06 | 42.19043 | -83.36078 | 2453 ft | 139 kts | 194° |
| 2026-05-05 00:07 | 42.18001 | -83.35921 | 2758 ft | 164 kts | 178° |
| 2026-05-05 00:07 | 42.16822 | -83.35569 | 2935 ft | 184 kts | 179° |
| 2026-05-05 00:07 | 42.15500 | -83.35198 | 3072 ft | 205 kts | 178° |
| 2026-05-05 00:07 | 42.14024 | -83.34784 | 3275 ft | 228 kts | 176° |
| 2026-05-05 00:08 | 42.12441 | -83.34320 | 3920 ft | 235 kts | 176° |
| 2026-05-05 00:08 | 42.10840 | -83.33700 | 4595 ft | 251 kts | 160° |
| 2026-05-05 00:08 | 42.09553 | -83.32013 | 5228 ft | 280 kts | 126° |
| 2026-05-05 00:08 | 42.08998 | -83.29364 | 5698 ft | 306 kts | 96° |
| 2026-05-05 00:09 | 42.09067 | -83.26475 | 6427 ft | 312 kts | 84° |
| 2026-05-05 00:09 | 42.09480 | -83.23584 | 7120 ft | 316 kts | 69° |
| 2026-05-05 00:09 | 42.10281 | -83.20825 | 7917 ft | 317 kts | 71° |
| 2026-05-05 00:09 | 42.10930 | -83.17969 | 8680 ft | 321 kts | 72° |
| 2026-05-05 00:10 | 42.11557 | -83.15075 | 9458 ft | 323 kts | 73° |
| 2026-05-05 00:10 | 42.12173 | -83.12145 | 10128 ft | 328 kts | 73° |
| 2026-05-05 00:10 | 42.12806 | -83.09094 | 10363 ft | 350 kts | 73° |
| 2026-05-05 00:10 | 42.13483 | -83.05834 | 10493 ft | 373 kts | 73° |
| 2026-05-05 00:11 | 42.14204 | -83.02372 | 10741 ft | 390 kts | 73° |
| 2026-05-05 00:11 | 42.14944 | -82.98814 | 11307 ft | 396 kts | 73° |
| 2026-05-05 00:11 | 42.15691 | -82.95229 | 11948 ft | 400 kts | 73° |
| 2026-05-05 00:11 | 42.16448 | -82.91593 | 12628 ft | 404 kts | 73° |
| 2026-05-05 00:12 | 42.17208 | -82.87927 | 13297 ft | 408 kts | 73° |
| 2026-05-05 00:12 | 42.17973 | -82.84226 | 13900 ft | 412 kts | 73° |
| 2026-05-05 00:12 | 42.18745 | -82.80494 | 14475 ft | 416 kts | 73° |
| 2026-05-05 00:12 | 42.19525 | -82.76713 | 15012 ft | 420 kts | 73° |
| 2026-05-05 00:13 | 42.20311 | -82.72904 | 15593 ft | 423 kts | 73° |
| 2026-05-05 00:13 | 42.21101 | -82.69062 | 16162 ft | 427 kts | 73° |
| 2026-05-05 00:13 | 42.21896 | -82.65185 | 16728 ft | 430 kts | 73° |
| 2026-05-05 00:13 | 42.22688 | -82.61332 | 17283 ft | 433 kts | 73° |
| 2026-05-05 00:14 | 42.23492 | -82.57398 | 17831 ft | 436 kts | 74° |
| 2026-05-05 00:14 | 42.24298 | -82.53442 | 18308 ft | 439 kts | 74° |
| 2026-05-05 00:14 | 42.25111 | -82.49452 | 18774 ft | 442 kts | 73° |
| 2026-05-05 00:14 | 42.25774 | -82.45387 | 19211 ft | 446 kts | 82° |
| 2026-05-05 00:15 | 42.26144 | -82.41212 | 19650 ft | 449 kts | 83° |
| 2026-05-05 00:15 | 42.26512 | -82.37015 | 20130 ft | 451 kts | 83° |
| 2026-05-05 00:15 | 42.26883 | -82.32793 | 20596 ft | 454 kts | 83° |
| 2026-05-05 00:15 | 42.27256 | -82.28545 | 21049 ft | 456 kts | 83° |
| 2026-05-05 00:16 | 42.27626 | -82.24275 | 21494 ft | 459 kts | 83° |
| 2026-05-05 00:16 | 42.27995 | -82.19975 | 21935 ft | 462 kts | 83° |
| 2026-05-05 00:16 | 42.28364 | -82.15649 | 22379 ft | 465 kts | 83° |
| 2026-05-05 00:16 | 42.28736 | -82.11300 | 22810 ft | 468 kts | 83° |
| 2026-05-05 00:17 | 42.29111 | -82.06915 | 23238 ft | 471 kts | 83° |
| 2026-05-05 00:17 | 42.29486 | -82.02504 | 23589 ft | 474 kts | 83° |
| 2026-05-05 00:17 | 42.29863 | -81.98067 | 23961 ft | 476 kts | 83° |
| 2026-05-05 00:17 | 42.30235 | -81.93619 | 24323 ft | 478 kts | 83° |
| 2026-05-05 00:18 | 42.30606 | -81.89140 | 24578 ft | 480 kts | 83° |
| 2026-05-05 00:18 | 42.30977 | -81.84655 | 24647 ft | 480 kts | 83° |
| 2026-05-05 00:18 | 42.31345 | -81.80227 | 24658 ft | 480 kts | 83° |
| 2026-05-05 00:18 | 42.31718 | -81.75745 | 24661 ft | 479 kts | 83° |
| 2026-05-05 00:19 | 42.32089 | -81.71258 | 24662 ft | 481 kts | 83° |
| 2026-05-05 00:19 | 42.32456 | -81.66758 | 24663 ft | 482 kts | 83° |
| 2026-05-05 00:19 | 42.32822 | -81.62252 | 24672 ft | 482 kts | 83° |
| 2026-05-05 00:19 | 42.33182 | -81.57741 | 24673 ft | 482 kts | 83° |
| 2026-05-05 00:20 | 42.33538 | -81.53236 | 24673 ft | 482 kts | 84° |
| 2026-05-05 00:20 | 42.33892 | -81.48730 | 24684 ft | 482 kts | 84° |
| 2026-05-05 00:20 | 42.34244 | -81.44226 | 24685 ft | 482 kts | 84° |
| 2026-05-05 00:20 | 42.34596 | -81.39717 | 24685 ft | 482 kts | 84° |
| 2026-05-05 00:21 | 42.34947 | -81.35208 | 24688 ft | 482 kts | 84° |
| 2026-05-05 00:21 | 42.35295 | -81.30696 | 24689 ft | 482 kts | 84° |
| 2026-05-05 00:21 | 42.35634 | -81.26247 | 24690 ft | 482 kts | 84° |
| 2026-05-05 00:21 | 42.35978 | -81.21686 | 24692 ft | 482 kts | 84° |
| 2026-05-05 00:22 | 42.36315 | -81.17180 | 24698 ft | 481 kts | 84° |
| 2026-05-05 00:22 | 42.36650 | -81.12678 | 24697 ft | 481 kts | 84° |
| 2026-05-05 00:22 | 42.36986 | -81.08177 | 24697 ft | 481 kts | 84° |
| 2026-05-05 00:22 | 42.37319 | -81.03731 | 24705 ft | 481 kts | 84° |
| 2026-05-05 00:23 | 42.37656 | -80.99226 | 24704 ft | 481 kts | 84° |
| 2026-05-05 00:23 | 42.37992 | -80.94728 | 24704 ft | 481 kts | 84° |
| 2026-05-05 00:23 | 42.38324 | -80.90230 | 24698 ft | 481 kts | 84° |
| 2026-05-05 00:23 | 42.38653 | -80.85722 | 24701 ft | 480 kts | 84° |
| 2026-05-05 00:24 | 42.38981 | -80.81172 | 24689 ft | 480 kts | 84° |
| 2026-05-05 00:24 | 42.39304 | -80.76675 | 24452 ft | 479 kts | 84° |
| 2026-05-05 00:24 | 42.39623 | -80.72203 | 24221 ft | 477 kts | 84° |
| 2026-05-05 00:24 | 42.39931 | -80.67811 | 23985 ft | 476 kts | 84° |
| 2026-05-05 00:25 | 42.40245 | -80.63297 | 23746 ft | 474 kts | 84° |
| 2026-05-05 00:25 | 42.40552 | -80.58916 | 23523 ft | 473 kts | 84° |
| 2026-05-05 00:25 | 42.40864 | -80.54498 | 23284 ft | 472 kts | 84° |
| 2026-05-05 00:25 | 42.41176 | -80.50077 | 23006 ft | 469 kts | 84° |
| 2026-05-05 00:26 | 42.41486 | -80.45688 | 22735 ft | 467 kts | 84° |
| 2026-05-05 00:26 | 42.41791 | -80.41332 | 22464 ft | 465 kts | 84° |
| 2026-05-05 00:26 | 42.42090 | -80.36986 | 22196 ft | 463 kts | 84° |
| 2026-05-05 00:26 | 42.42383 | -80.32660 | 21931 ft | 461 kts | 84° |
| 2026-05-05 00:27 | 42.42674 | -80.28344 | 21667 ft | 459 kts | 84° |
| 2026-05-05 00:27 | 42.42962 | -80.24047 | 21404 ft | 457 kts | 84° |
| 2026-05-05 00:27 | 42.43247 | -80.19765 | 21147 ft | 456 kts | 85° |
| 2026-05-05 00:27 | 42.43528 | -80.15505 | 20890 ft | 454 kts | 84° |
| 2026-05-05 00:28 | 42.43812 | -80.11248 | 20634 ft | 452 kts | 84° |
| 2026-05-05 00:28 | 42.44095 | -80.07018 | 20377 ft | 450 kts | 85° |
| 2026-05-05 00:28 | 42.44374 | -80.02802 | 20128 ft | 449 kts | 85° |
| 2026-05-05 00:28 | 42.44647 | -79.98609 | 19882 ft | 447 kts | 85° |
| 2026-05-05 00:29 | 42.44917 | -79.94422 | 19635 ft | 446 kts | 85° |
| 2026-05-05 00:29 | 42.45184 | -79.90242 | 19391 ft | 444 kts | 85° |
| 2026-05-05 00:29 | 42.45448 | -79.86107 | 19066 ft | 437 kts | 85° |
| 2026-05-05 00:29 | 42.45710 | -79.82020 | 18553 ft | 433 kts | 85° |
| 2026-05-05 00:30 | 42.45968 | -79.77974 | 18053 ft | 429 kts | 85° |
| 2026-05-05 00:30 | 42.46223 | -79.73966 | 17513 ft | 425 kts | 85° |
| 2026-05-05 00:30 | 42.46472 | -79.70009 | 17023 ft | 420 kts | 85° |
| 2026-05-05 00:30 | 42.46715 | -79.66086 | 16539 ft | 416 kts | 85° |
| 2026-05-05 00:31 | 42.46946 | -79.62292 | 16393 ft | 402 kts | 85° |
| 2026-05-05 00:31 | 42.47171 | -79.58576 | 16264 ft | 390 kts | 85° |
| 2026-05-05 00:31 | 42.47389 | -79.54990 | 16076 ft | 372 kts | 85° |
| 2026-05-05 00:31 | 42.47599 | -79.51550 | 15412 ft | 362 kts | 85° |
| 2026-05-05 00:32 | 42.47804 | -79.48175 | 14657 ft | 357 kts | 85° |
| 2026-05-05 00:32 | 42.48006 | -79.44848 | 13903 ft | 353 kts | 85° |
| 2026-05-05 00:32 | 42.48204 | -79.41546 | 13131 ft | 350 kts | 85° |
| 2026-05-05 00:32 | 42.48400 | -79.38262 | 12628 ft | 351 kts | 85° |
| 2026-05-05 00:33 | 42.48594 | -79.34990 | 12256 ft | 348 kts | 86° |
| 2026-05-05 00:33 | 42.48786 | -79.31719 | 11897 ft | 345 kts | 86° |
| 2026-05-05 00:33 | 42.48975 | -79.28491 | 11468 ft | 341 kts | 86° |
| 2026-05-05 00:33 | 42.49166 | -79.25283 | 10677 ft | 348 kts | 86° |
| 2026-05-05 00:34 | 42.49492 | -79.21942 | 10168 ft | 360 kts | 73° |
| 2026-05-05 00:34 | 42.50553 | -79.18960 | 10004 ft | 345 kts | 53° |
| 2026-05-05 00:34 | 42.51935 | -79.16387 | 10004 ft | 331 kts | 50° |
| 2026-05-05 00:34 | 42.53303 | -79.13912 | 10001 ft | 327 kts | 50° |
| 2026-05-05 00:35 | 42.54670 | -79.11450 | 10002 ft | 326 kts | 50° |
| 2026-05-05 00:35 | 42.56042 | -79.08989 | 10004 ft | 326 kts | 50° |
| 2026-05-05 00:35 | 42.57391 | -79.06567 | 10006 ft | 326 kts | 50° |
| 2026-05-05 00:35 | 42.58756 | -79.04117 | 10000 ft | 325 kts | 50° |
| 2026-05-05 00:36 | 42.60114 | -79.01665 | 10003 ft | 325 kts | 50° |
| 2026-05-05 00:36 | 42.61468 | -78.99213 | 10001 ft | 325 kts | 50° |
| 2026-05-05 00:36 | 42.62387 | -78.97556 | 10014 ft | 325 kts | 50° |
| 2026-05-05 00:37 | 42.65399 | -78.92117 | 10013 ft | 325 kts | 50° |
| 2026-05-05 00:37 | 42.66760 | -78.89661 | 10006 ft | 325 kts | 50° |
| 2026-05-05 00:37 | 42.68116 | -78.87206 | 10009 ft | 325 kts | 50° |
| 2026-05-05 00:37 | 42.69477 | -78.84750 | 10008 ft | 325 kts | 50° |
| 2026-05-05 00:38 | 42.70843 | -78.82300 | 10011 ft | 326 kts | 50° |
| 2026-05-05 00:38 | 42.72213 | -78.79843 | 10017 ft | 326 kts | 50° |
| 2026-05-05 00:38 | 42.73585 | -78.77388 | 10013 ft | 326 kts | 50° |
| 2026-05-05 00:38 | 42.74957 | -78.74936 | 10016 ft | 326 kts | 50° |
| 2026-05-05 00:39 | 42.76331 | -78.72484 | 10009 ft | 326 kts | 50° |
| 2026-05-05 00:39 | 42.77672 | -78.70084 | 9554 ft | 320 kts | 50° |
| 2026-05-05 00:39 | 42.79040 | -78.67654 | 8723 ft | 318 kts | 50° |
| 2026-05-05 00:39 | 42.80375 | -78.65325 | 7984 ft | 314 kts | 50° |
| 2026-05-05 00:40 | 42.81735 | -78.63012 | 7284 ft | 313 kts | 50° |
| 2026-05-05 00:40 | 42.83130 | -78.60692 | 6830 ft | 311 kts | 50° |
| 2026-05-05 00:40 | 42.84505 | -78.58430 | 6357 ft | 310 kts | 50° |
| 2026-05-05 00:40 | 42.85887 | -78.56194 | 5920 ft | 308 kts | 50° |
| 2026-05-05 00:41 | 42.87255 | -78.54006 | 5532 ft | 307 kts | 49° |
| 2026-05-05 00:41 | 42.88642 | -78.51794 | 5161 ft | 305 kts | 49° |
| 2026-05-05 00:41 | 42.90016 | -78.49611 | 4809 ft | 303 kts | 49° |
| 2026-05-05 00:41 | 42.91388 | -78.47438 | 4438 ft | 301 kts | 49° |
| 2026-05-05 00:42 | 42.92749 | -78.45288 | 4091 ft | 298 kts | 49° |
| 2026-05-05 00:42 | 42.94105 | -78.43158 | 3983 ft | 297 kts | 49° |
| 2026-05-05 00:42 | 42.95434 | -78.41066 | 3997 ft | 284 kts | 49° |
| 2026-05-05 00:42 | 42.96827 | -78.39277 | 3990 ft | 268 kts | 27° |
| 2026-05-05 00:43 | 42.98554 | -78.38549 | 4009 ft | 257 kts | 355° |
| 2026-05-05 00:43 | 43.00247 | -78.39053 | 4008 ft | 242 kts | 322° |
| 2026-05-05 00:43 | 43.01456 | -78.40480 | 4008 ft | 230 kts | 302° |
| 2026-05-05 00:43 | 43.02456 | -78.42182 | 4005 ft | 229 kts | 300° |
| 2026-05-05 00:44 | 43.03423 | -78.43914 | 4004 ft | 229 kts | 299° |
| 2026-05-05 00:44 | 43.04387 | -78.45656 | 4002 ft | 229 kts | 299° |
| 2026-05-05 00:44 | 43.05349 | -78.47395 | 4001 ft | 229 kts | 299° |
| 2026-05-05 00:44 | 43.06318 | -78.49133 | 3988 ft | 230 kts | 299° |
| 2026-05-05 00:45 | 43.07106 | -78.50972 | 3988 ft | 218 kts | 277° |
| 2026-05-05 00:45 | 43.07109 | -78.52959 | 4010 ft | 207 kts | 253° |
| 2026-05-05 00:45 | 43.06746 | -78.54862 | 4009 ft | 204 kts | 250° |
| 2026-05-05 00:45 | 43.06290 | -78.56612 | 3835 ft | 190 kts | 237° |
| 2026-05-05 00:46 | 43.05446 | -78.57955 | 3599 ft | 185 kts | 224° |
| 2026-05-05 00:46 | 43.04523 | -78.59167 | 3378 ft | 181 kts | 224° |
| 2026-05-05 00:46 | 43.03642 | -78.60327 | 3153 ft | 170 kts | 224° |
| 2026-05-05 00:46 | 43.02816 | -78.61416 | 2938 ft | 158 kts | 224° |
| 2026-05-05 00:47 | 43.02061 | -78.62411 | 2735 ft | 147 kts | 223° |
| 2026-05-05 00:47 | 43.01336 | -78.63366 | 2546 ft | 141 kts | 224° |
| 2026-05-05 00:47 | 43.00627 | -78.64300 | 2356 ft | 141 kts | 224° |
| 2026-05-05 00:47 | 42.99923 | -78.65226 | 2165 ft | 142 kts | 224° |
| 2026-05-05 00:48 | 42.99212 | -78.66163 | 1978 ft | 141 kts | 223° |
| 2026-05-05 00:48 | 42.98501 | -78.67098 | 1787 ft | 142 kts | 223° |
| 2026-05-05 00:48 | 42.97794 | -78.68031 | 1622 ft | 141 kts | 225° |
| 2026-05-05 00:48 | 42.97111 | -78.68966 | 1419 ft | 139 kts | 224° |
| 2026-05-05 00:49 | 42.96412 | -78.69885 | 1204 ft | 138 kts | 223° |
| 2026-05-05 00:49 | 42.95716 | -78.70790 | 1013 ft | 139 kts | 222° |
| 2026-05-05 00:49 | 42.95031 | -78.71670 | 826 ft | 139 kts | 221° |
| 2026-05-05 00:49 | 42.94332 | -78.72580 | 722 ft | 126 kts | 222° |
| 2026-05-05 00:50 | 42.93815 | -78.73277 | 720 ft | 48 kts | 225° |
| 2026-05-05 00:50 | 42.93747 | -78.73362 | 717 ft | 13 kts | 220° |
| 2026-05-05 00:50 | 42.93672 | -78.73363 | 720 ft | 11 kts | 113° |